Time;durP1;ratioP1;P1;durP2;ratioP2;P2;SDS_P1;SDS_P2;PMS_P1;PMS_P2;Temp;Humidity;BMP_temperature;BMP_pressure;BME280_temperature;BME280_humidity;BME280_pressure;Samples;Min_cycle;Max_cycle;Signal;HPM_P1;HPM_P2
2022/01/29 00:01:33;;;;;;;;;;;10.40;54.70;;;;;;5079922;28;19987;-70
2022/01/29 00:03:59;;;;;;;;;;;10.40;54.60;;;;;;5080007;28;19940;-70
2022/01/29 00:06:24;;;;;;;;;;;10.40;54.50;;;;;;5078625;28;19904;-70
2022/01/29 00:08:52;;;;;;;;;;;10.40;54.50;;;;;;5079803;28;19957;-69
2022/01/29 00:11:18;;;;;;;;;;;10.50;54.50;;;;;;5079876;28;19979;-70
2022/01/29 00:13:44;;;;;;;;;;;10.50;54.50;;;;;;5079806;28;19908;-70
2022/01/29 00:16:09;;;;;;;;;;;10.40;54.40;;;;;;5079573;28;19954;-70
2022/01/29 00:18:37;;;;;;;;;;;10.40;54.60;;;;;;5079312;28;20213;-69
2022/01/29 00:21:03;;;;;;;;;;;10.30;54.70;;;;;;5079711;28;20086;-70
2022/01/29 00:23:28;;;;;;;;;;;10.30;54.70;;;;;;5078379;28;19943;-70
2022/01/29 00:25:54;;;;;;;;;;;10.30;54.90;;;;;;5078390;28;19911;-70
2022/01/29 00:28:19;;;;;;;;;;;10.30;54.90;;;;;;5079661;28;20124;-71
2022/01/29 00:30:45;;;;;;;;;;;10.30;54.90;;;;;;5078351;28;19905;-70
2022/01/29 00:33:11;;;;;;;;;;;10.30;54.80;;;;;;5079622;28;19912;-70
2022/01/29 00:35:37;;;;;;;;;;;10.30;54.80;;;;;;5079504;28;20311;-70
2022/01/29 00:38:04;;;;;;;;;;;10.30;54.70;;;;;;5079584;28;19919;-71
2022/01/29 00:40:31;;;;;;;;;;;10.30;54.70;;;;;;5079559;28;19961;-70
2022/01/29 00:42:57;;;;;;;;;;;10.30;54.70;;;;;;5079590;28;19912;-70
2022/01/29 00:45:23;;;;;;;;;;;10.30;54.80;;;;;;5079534;28;19912;-69
2022/01/29 00:47:48;;;;;;;;;;;10.30;54.90;;;;;;5079535;28;19911;-70
2022/01/29 00:50:14;;;;;;;;;;;10.30;54.90;;;;;;5078605;28;19912;-69
2022/01/29 00:52:39;;;;;;;;;;;10.30;54.90;;;;;;5083251;28;20136;-70
2022/01/29 00:55:09;;;;;;;;;;;10.30;54.90;;;;;;5083065;28;20400;-70
2022/01/29 00:57:37;;;;;;;;;;;10.30;54.90;;;;;;5081867;28;20184;-70
2022/01/29 01:00:04;;;;;;;;;;;10.30;55.00;;;;;;5083029;28;19912;-71
2022/01/29 01:02:30;;;;;;;;;;;10.20;54.90;;;;;;5083106;28;19980;-70
2022/01/29 01:04:55;;;;;;;;;;;10.20;55.00;;;;;;5083013;28;19913;-71
2022/01/29 01:07:21;;;;;;;;;;;10.20;55.00;;;;;;5082913;28;19912;-70
2022/01/29 01:09:46;;;;;;;;;;;10.30;55.00;;;;;;5083138;28;19934;-69
2022/01/29 01:12:12;;;;;;;;;;;10.30;54.80;;;;;;5082854;28;20210;-69
2022/01/29 01:14:37;;;;;;;;;;;10.30;54.70;;;;;;5082764;28;19916;-69
2022/01/29 01:17:03;;;;;;;;;;;10.30;54.70;;;;;;5082655;28;19942;-70
2022/01/29 01:19:29;;;;;;;;;;;10.30;54.70;;;;;;5082730;28;19908;-69
2022/01/29 01:21:55;;;;;;;;;;;10.30;54.80;;;;;;5082638;28;19943;-69
2022/01/29 01:24:21;;;;;;;;;;;10.30;54.90;;;;;;5082675;28;19958;-70
2022/01/29 01:26:47;;;;;;;;;;;10.20;55.00;;;;;;5082608;28;20096;-69
2022/01/29 01:29:12;;;;;;;;;;;10.20;55.00;;;;;;5082471;28;19913;-69
2022/01/29 01:31:39;;;;;;;;;;;10.20;55.00;;;;;;5081121;28;19912;-69
2022/01/29 01:34:06;;;;;;;;;;;10.20;55.10;;;;;;5082309;28;19982;-70
2022/01/29 01:36:34;;;;;;;;;;;10.20;55.10;;;;;;5082358;28;19904;-70
2022/01/29 01:39:05;;;;;;;;;;;10.20;55.10;;;;;;5082234;28;19936;-70
2022/01/29 01:41:37;;;;;;;;;;;10.20;55.00;;;;;;5082316;28;19912;-70
2022/01/29 01:44:03;;;;;;;;;;;10.20;55.00;;;;;;5082242;28;19942;-69
2022/01/29 01:46:29;;;;;;;;;;;10.20;54.90;;;;;;5082159;28;19948;-70
2022/01/29 01:48:55;;;;;;;;;;;10.30;54.90;;;;;;5082047;28;19911;-70
2022/01/29 01:51:20;;;;;;;;;;;10.30;54.80;;;;;;5081997;28;19916;-70
2022/01/29 01:53:46;;;;;;;;;;;10.30;54.70;;;;;;5081969;28;20184;-69
2022/01/29 01:56:12;;;;;;;;;;;10.30;54.70;;;;;;5081972;28;19919;-69
2022/01/29 01:58:38;;;;;;;;;;;10.30;54.80;;;;;;5081954;28;19979;-70
2022/01/29 02:01:03;;;;;;;;;;;10.20;54.90;;;;;;5081738;28;19905;-70
2022/01/29 02:03:29;;;;;;;;;;;10.20;55.00;;;;;;5081740;28;19905;-70
2022/01/29 02:05:55;;;;;;;;;;;10.20;55.10;;;;;;5081744;28;19904;-69
2022/01/29 02:08:20;;;;;;;;;;;10.10;55.10;;;;;;5081722;28;19987;-69
2022/01/29 02:10:48;;;;;;;;;;;10.10;55.10;;;;;;5081655;28;19905;-69
2022/01/29 02:13:15;;;;;;;;;;;10.10;55.20;;;;;;5081545;28;19920;-70
2022/01/29 02:15:40;;;;;;;;;;;10.20;55.80;;;;;;5080095;28;19939;-69
2022/01/29 02:18:12;;;;;;;;;;;10.20;55.10;;;;;;5081564;28;20217;-71
2022/01/29 02:20:38;;;;;;;;;;;10.20;55.00;;;;;;5081523;28;19932;-70
2022/01/29 02:23:04;;;;;;;;;;;10.20;55.00;;;;;;5080123;28;19967;-70
2022/01/29 02:25:29;;;;;;;;;;;10.20;55.00;;;;;;5080143;28;19942;-70
2022/01/29 02:27:55;;;;;;;;;;;10.20;55.00;;;;;;5081255;28;19916;-70
2022/01/29 02:30:21;;;;;;;;;;;10.20;55.60;;;;;;5081254;28;20094;-70
2022/01/29 02:32:47;;;;;;;;;;;10.20;55.00;;;;;;5081194;28;19919;-71
2022/01/29 02:35:12;;;;;;;;;;;10.20;55.10;;;;;;5081167;28;19923;-70
2022/01/29 02:37:39;;;;;;;;;;;10.10;55.00;;;;;;5081101;28;19983;-70
2022/01/29 02:40:05;;;;;;;;;;;10.10;55.10;;;;;;5081020;28;19904;-71
2022/01/29 02:42:31;;;;;;;;;;;10.10;55.10;;;;;;5080965;28;19913;-70
2022/01/29 02:44:56;;;;;;;;;;;10.10;55.80;;;;;;5081002;28;19905;-70
2022/01/29 02:47:29;;;;;;;;;;;10.10;55.20;;;;;;5079640;28;19916;-70
2022/01/29 02:49:55;;;;;;;;;;;10.10;55.20;;;;;;5080888;28;20180;-69
2022/01/29 02:52:20;;;;;;;;;;;10.10;55.20;;;;;;5080911;28;19920;-70
2022/01/29 02:54:46;;;;;;;;;;;10.10;55.10;;;;;;5080718;28;19913;-70
2022/01/29 02:57:12;;;;;;;;;;;10.20;55.00;;;;;;5080763;28;19931;-70
2022/01/29 02:59:37;;;;;;;;;;;10.20;55.00;;;;;;5080697;28;20439;-71
2022/01/29 03:02:03;;;;;;;;;;;10.20;54.90;;;;;;5080644;28;19913;-71
2022/01/29 03:04:28;;;;;;;;;;;10.10;54.90;;;;;;5080606;28;20196;-70
2022/01/29 03:06:54;;;;;;;;;;;10.10;55.10;;;;;;5080504;28;20137;-70
2022/01/29 03:09:20;;;;;;;;;;;10.10;55.10;;;;;;5080545;28;20136;-69
2022/01/29 03:11:45;;;;;;;;;;;10.10;55.20;;;;;;5080429;28;19919;-70
2022/01/29 03:14:11;;;;;;;;;;;10.10;55.30;;;;;;5079720;28;20169;-71
2022/01/29 03:16:36;;;;;;;;;;;10.10;55.30;;;;;;5078968;28;20224;-70
2022/01/29 03:19:02;;;;;;;;;;;10.10;55.30;;;;;;5080299;28;19920;-70
2022/01/29 03:21:28;;;;;;;;;;;10.10;55.30;;;;;;5080310;28;19912;-70
2022/01/29 03:23:53;;;;;;;;;;;10.10;55.30;;;;;;5080258;28;19908;-70
2022/01/29 03:26:19;;;;;;;;;;;10.10;55.90;;;;;;5080223;28;19905;-70
2022/01/29 03:28:46;;;;;;;;;;;10.10;55.30;;;;;;5080215;28;20009;-70
2022/01/29 03:31:12;;;;;;;;;;;10.10;55.20;;;;;;5079014;28;20219;-71
2022/01/29 03:33:37;;;;;;;;;;;10.10;55.10;;;;;;5080086;28;19912;-69
2022/01/29 03:36:03;;;;;;;;;;;10.10;55.60;;;;;;5080073;28;19957;-70
2022/01/29 03:38:28;;;;;;;;;;;10.10;55.10;;;;;;5080071;28;20015;-70
2022/01/29 03:40:57;;;;;;;;;;;10.10;55.10;;;;;;5080102;28;19911;-70
2022/01/29 03:43:35;;;;;;;;;;;10.10;55.20;;;;;;5080028;28;19913;-71
2022/01/29 03:46:01;;;;;;;;;;;10.10;55.30;;;;;;5080004;28;19916;-71
2022/01/29 03:48:26;;;;;;;;;;;10.00;55.30;;;;;;5079970;28;19912;-69
2022/01/29 03:50:52;;;;;;;;;;;10.00;55.30;;;;;;5079915;28;19919;-69
2022/01/29 03:53:17;;;;;;;;;;;10.00;55.30;;;;;;5079845;28;19912;-69
2022/01/29 03:55:43;;;;;;;;;;;10.00;55.30;;;;;;5079859;28;19987;-69
2022/01/29 03:58:09;;;;;;;;;;;10.00;55.30;;;;;;5080009;28;19915;-69
2022/01/29 04:00:34;;;;;;;;;;;10.10;55.30;;;;;;5079795;28;19908;-70
2022/01/29 04:03:00;;;;;;;;;;;10.10;55.20;;;;;;5079704;28;19919;-70
2022/01/29 04:05:26;;;;;;;;;;;10.10;55.10;;;;;;5080083;28;19983;-70
2022/01/29 04:07:52;;;;;;;;;;;10.10;55.00;;;;;;5079795;28;19944;-70
2022/01/29 04:10:19;;;;;;;;;;;10.10;55.00;;;;;;5079716;28;19912;-70
2022/01/29 04:12:48;;;;;;;;;;;10.10;55.10;;;;;;5079668;28;19911;-70
2022/01/29 04:15:14;;;;;;;;;;;10.10;55.10;;;;;;5079646;28;20220;-70
2022/01/29 04:17:39;;;;;;;;;;;10.10;55.20;;;;;;5079574;28;19938;-70
2022/01/29 04:20:05;;;;;;;;;;;10.10;55.30;;;;;;5079639;28;19951;-70
2022/01/29 04:22:31;;;;;;;;;;;10.00;55.20;;;;;;5078355;28;19919;-70
2022/01/29 04:24:57;;;;;;;;;;;10.00;55.90;;;;;;5079565;28;19913;-70
2022/01/29 04:27:32;;;;;;;;;;;10.00;55.30;;;;;;5083529;28;19913;-70
2022/01/29 04:30:00;;;;;;;;;;;10.00;55.30;;;;;;5083549;28;19912;-70
2022/01/29 04:32:44;;;;;;;;;;;10.00;55.30;;;;;;5083487;28;19913;-69
2022/01/29 04:35:10;;;;;;;;;;;10.10;55.30;;;;;;5083272;28;19961;-70
2022/01/29 04:37:36;;;;;;;;;;;10.00;55.20;;;;;;5083321;28;19962;-70
2022/01/29 04:40:02;;;;;;;;;;;10.10;55.10;;;;;;5083338;28;19920;-70
2022/01/29 04:42:28;;;;;;;;;;;10.10;55.00;;;;;;5083299;28;19920;-69
2022/01/29 04:44:53;;;;;;;;;;;10.10;55.00;;;;;;5083230;28;20124;-70
2022/01/29 04:47:19;;;;;;;;;;;10.10;55.00;;;;;;5083161;28;20363;-70
2022/01/29 04:49:44;;;;;;;;;;;10.10;55.10;;;;;;5081877;28;19904;-70
2022/01/29 04:52:10;;;;;;;;;;;10.00;55.10;;;;;;5081890;28;19959;-70
2022/01/29 04:54:35;;;;;;;;;;;10.00;55.20;;;;;;5082913;28;19954;-70
2022/01/29 04:57:01;;;;;;;;;;;10.00;55.20;;;;;;5082983;28;19912;-70
2022/01/29 04:59:26;;;;;;;;;;;10.00;55.30;;;;;;5083048;28;20303;-70
2022/01/29 05:01:52;;;;;;;;;;;10.00;55.30;;;;;;5082975;28;20065;-70
2022/01/29 05:04:18;;;;;;;;;;;10.00;55.30;;;;;;5082862;28;19913;-70
2022/01/29 05:06:43;;;;;;;;;;;10.00;55.40;;;;;;5082841;28;19908;-70
2022/01/29 05:09:10;;;;;;;;;;;10.00;55.40;;;;;;5082839;28;19904;-70
2022/01/29 05:11:35;;;;;;;;;;;10.00;55.30;;;;;;5082726;28;19935;-70
2022/01/29 05:14:03;;;;;;;;;;;10.00;55.30;;;;;;5082650;28;19916;-69
2022/01/29 05:16:55;;;;;;;;;;;10.00;55.20;;;;;;5082546;28;19916;-71
2022/01/29 05:27:33;;;;;;;;;;;10.00;55.30;;;;;;5082453;28;19920;-70
2022/01/29 05:29:58;;;;;;;;;;;10.00;55.30;;;;;;5082401;28;19904;-70
2022/01/29 05:32:25;;;;;;;;;;;10.00;55.30;;;;;;5082416;28;19943;-70
2022/01/29 05:34:50;;;;;;;;;;;10.00;55.30;;;;;;5082231;28;20228;-70
2022/01/29 05:37:16;;;;;;;;;;;10.00;55.30;;;;;;5081636;28;19936;-69
2022/01/29 05:39:41;;;;;;;;;;;10.00;55.30;;;;;;5082203;28;19905;-70
2022/01/29 05:42:07;;;;;;;;;;;10.00;55.40;;;;;;5082244;28;19913;-70
2022/01/29 05:44:33;;;;;;;;;;;10.00;55.40;;;;;;5082198;28;19940;-70
2022/01/29 05:46:58;;;;;;;;;;;10.00;55.40;;;;;;5082049;28;19912;-70
2022/01/29 05:49:24;;;;;;;;;;;10.00;55.40;;;;;;5082011;28;19912;-70
2022/01/29 05:51:49;;;;;;;;;;;10.00;55.40;;;;;;5082081;28;20311;-70
2022/01/29 05:54:15;;;;;;;;;;;10.00;55.40;;;;;;5081786;28;20478;-70
2022/01/29 05:56:41;;;;;;;;;;;10.00;55.30;;;;;;5081947;28;19913;-70
2022/01/29 05:59:07;;;;;;;;;;;10.00;55.30;;;;;;5081925;28;19912;-70
2022/01/29 06:01:32;;;;;;;;;;;10.00;55.30;;;;;;5081836;28;20132;-70
2022/01/29 06:03:58;;;;;;;;;;;10.00;55.30;;;;;;5081762;28;19920;-69
2022/01/29 06:06:23;;;;;;;;;;;10.00;55.30;;;;;;5081749;28;19913;-70
2022/01/29 06:08:49;;;;;;;;;;;10.00;55.40;;;;;;5081618;28;19940;-70
2022/01/29 06:11:16;;;;;;;;;;;9.90;55.30;;;;;;5081622;28;19950;-70
2022/01/29 06:13:42;;;;;;;;;;;9.90;55.30;;;;;;5081541;28;19942;-70
2022/01/29 06:16:07;;;;;;;;;;;10.00;55.40;;;;;;5081398;28;19929;-70
2022/01/29 06:18:33;;;;;;;;;;;10.00;55.40;;;;;;5081452;28;19916;-70
2022/01/29 06:21:04;;;;;;;;;;;9.90;55.30;;;;;;5081454;28;19912;-70
2022/01/29 06:23:32;;;;;;;;;;;10.00;55.30;;;;;;5081687;28;19905;-69
2022/01/29 06:25:58;;;;;;;;;;;10.00;55.30;;;;;;5081342;28;20021;-70
2022/01/29 06:28:24;;;;;;;;;;;10.00;55.30;;;;;;5081255;28;19954;-70
2022/01/29 06:30:49;;;;;;;;;;;10.00;55.30;;;;;;5081171;28;19905;-70
2022/01/29 06:33:15;;;;;;;;;;;10.00;55.30;;;;;;5081180;28;19912;-70
2022/01/29 06:35:41;;;;;;;;;;;10.00;55.30;;;;;;5081110;28;19917;-70
2022/01/29 06:38:07;;;;;;;;;;;10.00;55.30;;;;;;5081168;28;20212;-71
2022/01/29 06:40:33;;;;;;;;;;;10.00;55.30;;;;;;5081088;28;19913;-71
2022/01/29 06:43:01;;;;;;;;;;;10.00;55.30;;;;;;5079685;28;19908;-70
2022/01/29 06:45:27;;;;;;;;;;;10.00;55.30;;;;;;5080969;28;19966;-70
2022/01/29 06:47:52;;;;;;;;;;;10.00;55.40;;;;;;5080146;28;19919;-70
2022/01/29 06:50:18;;;;;;;;;;;10.00;55.40;;;;;;5080748;28;20108;-70
2022/01/29 06:52:43;;;;;;;;;;;10.00;55.30;;;;;;5080764;28;19939;-70
2022/01/29 06:55:09;;;;;;;;;;;10.00;55.30;;;;;;5080674;28;19909;-70
2022/01/29 06:57:35;;;;;;;;;;;10.00;55.30;;;;;;5080650;28;19923;-70
2022/01/29 07:00:00;;;;;;;;;;;10.00;55.30;;;;;;5080634;28;19919;-69
2022/01/29 07:02:26;;;;;;;;;;;10.00;55.20;;;;;;5080633;28;19912;-70
2022/01/29 07:04:52;;;;;;;;;;;10.10;55.20;;;;;;5080621;28;19962;-70
2022/01/29 07:07:17;;;;;;;;;;;10.00;55.10;;;;;;5080591;28;20268;-70
2022/01/29 07:09:43;;;;;;;;;;;10.00;55.20;;;;;;5080474;28;19913;-70
2022/01/29 07:12:10;;;;;;;;;;;10.00;55.20;;;;;;5080510;28;19908;-70
2022/01/29 07:14:39;;;;;;;;;;;10.00;55.20;;;;;;5080418;28;19923;-69
2022/01/29 07:17:09;;;;;;;;;;;10.00;55.20;;;;;;5080232;28;19916;-70
2022/01/29 07:19:35;;;;;;;;;;;10.00;55.20;;;;;;5080367;28;19912;-69
2022/01/29 07:22:01;;;;;;;;;;;10.00;55.20;;;;;;5080360;28;19935;-70
2022/01/29 07:24:26;;;;;;;;;;;10.00;55.20;;;;;;5080281;28;19911;-69
2022/01/29 07:26:52;;;;;;;;;;;10.00;55.20;;;;;;5080222;28;19943;-70
2022/01/29 07:29:17;;;;;;;;;;;10.00;55.20;;;;;;5080212;28;19916;-71
2022/01/29 07:31:43;;;;;;;;;;;10.00;55.20;;;;;;5080190;28;19919;-70
2022/01/29 07:34:09;;;;;;;;;;;10.00;55.10;;;;;;5080068;28;19909;-70
2022/01/29 07:36:34;;;;;;;;;;;10.10;55.20;;;;;;5080050;28;19941;-70
2022/01/29 07:39:00;;;;;;;;;;;10.10;55.10;;;;;;5080077;28;19919;-70
2022/01/29 07:41:25;;;;;;;;;;;10.10;55.10;;;;;;5080034;28;19943;-70
2022/01/29 07:43:51;;;;;;;;;;;10.10;54.90;;;;;;5079941;28;19979;-70
2022/01/29 07:46:16;;;;;;;;;;;10.20;54.90;;;;;;5112499;28;20189;-70
2022/01/29 07:48:42;;;;;;;;;;;10.10;54.80;;;;;;5079978;28;20358;-70
2022/01/29 07:51:08;;;;;;;;;;;10.10;54.90;;;;;;5079934;28;19983;-70
2022/01/29 07:53:33;;;;;;;;;;;10.10;55.00;;;;;;5079932;28;20109;-70
2022/01/29 07:55:59;;;;;;;;;;;10.10;55.00;;;;;;5079750;28;19916;-70
2022/01/29 07:58:24;;;;;;;;;;;10.10;54.90;;;;;;5079857;28;19971;-69
2022/01/29 08:00:50;;;;;;;;;;;10.20;54.90;;;;;;5079579;28;19913;-69
2022/01/29 08:03:15;;;;;;;;;;;10.10;54.90;;;;;;5079769;28;19973;-69
2022/01/29 08:05:41;;;;;;;;;;;10.10;54.90;;;;;;5079745;28;19919;-70
2022/01/29 08:08:06;;;;;;;;;;;10.10;54.90;;;;;;5079719;28;19905;-70
2022/01/29 08:10:33;;;;;;;;;;;10.10;54.90;;;;;;5079786;28;19912;-70
2022/01/29 08:12:58;;;;;;;;;;;10.20;54.90;;;;;;5078402;28;20000;-70
2022/01/29 08:15:24;;;;;;;;;;;10.20;54.90;;;;;;5079580;28;19908;-70
2022/01/29 08:17:49;;;;;;;;;;;10.30;54.70;;;;;;5079575;28;19951;-70
2022/01/29 08:20:15;;;;;;;;;;;10.30;54.70;;;;;;5079579;28;19924;-70
2022/01/29 08:22:41;;;;;;;;;;;10.50;54.40;;;;;;5079634;28;19913;-70
2022/01/29 08:25:06;;;;;;;;;;;10.50;54.10;;;;;;5079586;28;19919;-71
2022/01/29 08:27:32;;;;;;;;;;;10.50;54.10;;;;;;5079588;28;19912;-70
2022/01/29 08:29:58;;;;;;;;;;;10.50;54.10;;;;;;5078317;28;20116;-70
2022/01/29 08:32:23;;;;;;;;;;;10.50;53.90;;;;;;5079542;28;19913;-70
2022/01/29 08:34:49;;;;;;;;;;;10.50;54.10;;;;;;5079446;28;19948;-69
2022/01/29 08:37:15;;;;;;;;;;;10.50;54.20;;;;;;5079475;28;19904;-69
2022/01/29 08:39:41;;;;;;;;;;;10.50;54.20;;;;;;5079460;28;19920;-71
2022/01/29 08:42:07;;;;;;;;;;;10.50;54.20;;;;;;5079447;28;19951;-70
2022/01/29 08:44:33;;;;;;;;;;;10.50;54.20;;;;;;5079553;28;20138;-70
2022/01/29 08:46:58;;;;;;;;;;;10.50;54.00;;;;;;5079426;28;19905;-70
2022/01/29 08:49:25;;;;;;;;;;;10.50;54.10;;;;;;5079347;28;20078;-69
2022/01/29 08:51:51;;;;;;;;;;;10.60;54.00;;;;;;5079388;28;19919;-70
2022/01/29 08:54:17;;;;;;;;;;;10.60;54.00;;;;;;5079322;28;20140;-70
2022/01/29 08:56:42;;;;;;;;;;;10.60;53.90;;;;;;5079364;28;19987;-70
2022/01/29 08:59:08;;;;;;;;;;;10.60;53.90;;;;;;5079586;28;19927;-70
2022/01/29 09:01:33;;;;;;;;;;;10.60;53.90;;;;;;5079359;28;19950;-69
2022/01/29 09:03:59;;;;;;;;;;;10.60;53.90;;;;;;5077938;28;19942;-69
2022/01/29 09:06:25;;;;;;;;;;;10.70;53.90;;;;;;5079200;28;20073;-69
2022/01/29 09:08:51;;;;;;;;;;;10.70;53.80;;;;;;5079206;28;19912;-69
2022/01/29 09:11:17;;;;;;;;;;;10.70;53.70;;;;;;5079671;28;19928;-70
2022/01/29 09:13:43;;;;;;;;;;;10.70;53.70;;;;;;5082690;28;20017;-70
2022/01/29 09:16:09;;;;;;;;;;;10.70;53.70;;;;;;5082431;28;20204;-69
2022/01/29 09:18:34;;;;;;;;;;;10.80;53.60;;;;;;5082776;28;19911;-69
2022/01/29 09:21:00;;;;;;;;;;;10.80;53.50;;;;;;5082612;28;20282;-69
2022/01/29 09:23:26;;;;;;;;;;;10.80;53.60;;;;;;5082631;28;20375;-69
2022/01/29 09:25:52;;;;;;;;;;;10.80;53.60;;;;;;5082570;28;19919;-69
2022/01/29 09:28:17;;;;;;;;;;;10.80;53.50;;;;;;5082473;28;19988;-69
2022/01/29 09:30:44;;;;;;;;;;;10.80;53.50;;;;;;5082497;28;19912;-69
2022/01/29 09:33:10;;;;;;;;;;;10.80;53.50;;;;;;5082435;28;19962;-69
2022/01/29 09:35:38;;;;;;;;;;;10.80;53.60;;;;;;5082357;28;20235;-70
2022/01/29 09:38:04;;;;;;;;;;;10.80;53.60;;;;;;5082329;28;19921;-70
2022/01/29 09:40:30;;;;;;;;;;;10.80;53.70;;;;;;5082276;28;19904;-69
2022/01/29 09:42:56;;;;;;;;;;;10.80;53.70;;;;;;5082161;28;20400;-69
2022/01/29 09:45:23;;;;;;;;;;;10.80;53.70;;;;;;5082248;28;19975;-70
2022/01/29 09:47:49;;;;;;;;;;;10.80;53.70;;;;;;5082089;28;19904;-70
2022/01/29 09:50:16;;;;;;;;;;;10.90;53.60;;;;;;5080800;28;19912;-69
2022/01/29 09:52:41;;;;;;;;;;;10.90;53.70;;;;;;5081980;28;19912;-70
2022/01/29 09:55:07;;;;;;;;;;;10.90;53.70;;;;;;5081945;28;20133;-70
2022/01/29 09:57:33;;;;;;;;;;;10.80;53.70;;;;;;5081964;28;19912;-70
2022/01/29 09:59:59;;;;;;;;;;;10.80;53.70;;;;;;5081993;28;19946;-70
2022/01/29 10:02:24;;;;;;;;;;;10.80;53.80;;;;;;5081895;28;19905;-69
2022/01/29 10:04:51;;;;;;;;;;;10.80;53.80;;;;;;5081841;28;19912;-70
2022/01/29 10:07:18;;;;;;;;;;;10.80;53.80;;;;;;5081784;28;20074;-70
2022/01/29 10:09:44;;;;;;;;;;;10.80;53.80;;;;;;5081685;28;20155;-69
2022/01/29 10:12:15;;;;;;;;;;;10.80;53.90;;;;;;5081721;28;19967;-69
2022/01/29 10:15:00;;;;;;;;;;;10.80;53.90;;;;;;5081588;28;19920;-70
2022/01/29 10:17:38;;;;;;;;;;;10.80;53.80;;;;;;5081460;28;19932;-70
2022/01/29 10:20:11;;;;;;;;;;;10.80;53.90;;;;;;5081544;28;20208;-69
2022/01/29 10:22:37;;;;;;;;;;;10.80;53.90;;;;;;5081371;28;19916;-69
2022/01/29 10:25:06;;;;;;;;;;;10.80;53.80;;;;;;5081366;28;19912;-69
2022/01/29 10:27:32;;;;;;;;;;;10.80;53.70;;;;;;5081360;28;19911;-70
2022/01/29 10:30:00;;;;;;;;;;;10.90;53.80;;;;;;5081352;28;19984;-69
2022/01/29 10:32:28;;;;;;;;;;;10.80;53.70;;;;;;5081307;28;19979;-70
2022/01/29 10:34:55;;;;;;;;;;;10.90;53.70;;;;;;5081208;28;19920;-69
2022/01/29 10:37:23;;;;;;;;;;;10.90;53.90;;;;;;5081203;28;19993;-70
2022/01/29 10:39:52;;;;;;;;;;;10.80;53.90;;;;;;5081158;28;20100;-70
2022/01/29 10:42:19;;;;;;;;;;;10.90;53.90;;;;;;5081093;28;19935;-69
2022/01/29 10:44:46;;;;;;;;;;;10.80;53.90;;;;;;5081016;28;19911;-69
2022/01/29 10:47:11;;;;;;;;;;;10.80;54.00;;;;;;5080887;28;19913;-68
2022/01/29 10:49:44;;;;;;;;;;;10.80;53.90;;;;;;5080912;28;19913;-69
2022/01/29 10:52:09;;;;;;;;;;;10.80;54.00;;;;;;5080895;28;19909;-69
2022/01/29 10:54:36;;;;;;;;;;;10.80;53.90;;;;;;5080730;28;19923;-70
2022/01/29 10:57:02;;;;;;;;;;;10.80;53.90;;;;;;5080738;28;20239;-70
2022/01/29 10:59:29;;;;;;;;;;;10.90;53.90;;;;;;5080797;28;19912;-69
2022/01/29 11:02:02;;;;;;;;;;;10.90;54.00;;;;;;5080604;28;19959;-70
2022/01/29 11:04:29;;;;;;;;;;;10.90;53.90;;;;;;5080699;28;19989;-70
2022/01/29 11:06:57;;;;;;;;;;;10.90;53.90;;;;;;5080638;28;19974;-69
2022/01/29 11:09:23;;;;;;;;;;;10.80;54.10;;;;;;5080892;28;19913;-70
2022/01/29 11:11:50;;;;;;;;;;;10.80;54.00;;;;;;5080525;28;19950;-70
2022/01/29 11:14:18;;;;;;;;;;;10.80;54.10;;;;;;5080406;28;19916;-69
2022/01/29 11:16:45;;;;;;;;;;;10.80;54.10;;;;;;5080263;28;19924;-71
2022/01/29 11:19:11;;;;;;;;;;;10.80;53.90;;;;;;5080414;28;19912;-70
2022/01/29 11:21:37;;;;;;;;;;;10.90;53.90;;;;;;5079021;28;19912;-70
2022/01/29 11:24:03;;;;;;;;;;;10.90;54.00;;;;;;5080335;28;19981;-71
2022/01/29 11:26:30;;;;;;;;;;;10.90;54.70;;;;;;5080447;28;19904;-71
2022/01/29 11:29:14;;;;;;;;;;;10.80;54.00;;;;;;5080231;28;20246;-71
2022/01/29 11:31:40;;;;;;;;;;;10.80;54.10;;;;;;5080256;28;19911;-69
2022/01/29 11:34:07;;;;;;;;;;;10.90;54.10;;;;;;5079627;28;19916;-69
2022/01/29 11:36:48;;;;;;;;;;;10.90;54.10;;;;;;5080157;28;19913;-70
2022/01/29 11:39:20;;;;;;;;;;;10.90;54.10;;;;;;5080109;28;20082;-70
2022/01/29 11:41:52;;;;;;;;;;;10.90;54.10;;;;;;5080092;28;19912;-70
2022/01/29 11:44:25;;;;;;;;;;;10.90;54.20;;;;;;5080121;28;19963;-72
2022/01/29 11:46:50;;;;;;;;;;;10.80;54.20;;;;;;5080012;28;19979;-71
2022/01/29 11:49:21;;;;;;;;;;;10.80;54.20;;;;;;5080048;28;19912;-70
2022/01/29 11:51:48;;;;;;;;;;;10.80;54.20;;;;;;5079946;28;19917;-69
2022/01/29 11:54:15;;;;;;;;;;;10.80;54.10;;;;;;5079835;28;19923;-70
2022/01/29 11:56:42;;;;;;;;;;;10.80;54.00;;;;;;5078591;28;20093;-70
2022/01/29 11:59:16;;;;;;;;;;;10.90;54.00;;;;;;5079884;28;20011;-71
2022/01/29 12:01:41;;;;;;;;;;;10.80;54.10;;;;;;5079879;28;19919;-71
2022/01/29 12:04:07;;;;;;;;;;;10.80;54.00;;;;;;5080361;28;19934;-70
2022/01/29 12:06:35;;;;;;;;;;;10.80;54.10;;;;;;5079781;28;19919;-70
2022/01/29 12:09:07;;;;;;;;;;;10.80;54.20;;;;;;5079830;28;19913;-69
2022/01/29 12:11:34;;;;;;;;;;;10.80;54.10;;;;;;5079767;28;19919;-69
2022/01/29 12:14:11;;;;;;;;;;;10.80;54.20;;;;;;5079777;28;19939;-70
2022/01/29 12:16:50;;;;;;;;;;;10.80;54.30;;;;;;5079618;28;19917;-70
2022/01/29 12:19:48;;;;;;;;;;;10.80;54.20;;;;;;5079715;28;19913;-69
2022/01/29 12:22:17;;;;;;;;;;;10.80;54.20;;;;;;5089364;28;19978;-69
2022/01/29 12:24:58;;;;;;;;;;;10.80;54.30;;;;;;5079667;28;20116;-69
2022/01/29 12:27:38;;;;;;;;;;;10.80;54.30;;;;;;5079714;28;20251;-68
2022/01/29 12:30:03;;;;;;;;;;;10.80;54.30;;;;;;5078294;28;19920;-70
2022/01/29 12:32:29;;;;;;;;;;;10.80;54.20;;;;;;5079522;28;19905;-69
2022/01/29 12:34:55;;;;;;;;;;;10.90;54.30;;;;;;5079495;28;20113;-70
2022/01/29 12:37:20;;;;;;;;;;;10.80;54.10;;;;;;5079564;28;19913;-70
2022/01/29 12:39:48;;;;;;;;;;;10.80;54.10;;;;;;5079528;28;19952;-71
2022/01/29 12:44:40;;;;;;;;;;;10.80;54.30;;;;;;5079388;28;20163;-70
2022/01/29 12:47:06;;;;;;;;;;;10.80;54.30;;;;;;5081288;28;19940;-70
2022/01/29 12:49:39;;;;;;;;;;;10.80;54.30;;;;;;5083204;28;19904;-70
2022/01/29 12:52:06;;;;;;;;;;;10.80;54.30;;;;;;5083185;28;19954;-70
2022/01/29 12:54:34;;;;;;;;;;;10.80;54.30;;;;;;5083099;28;20183;-71
2022/01/29 12:57:00;;;;;;;;;;;10.80;54.30;;;;;;5083073;28;20439;-71
2022/01/29 12:59:26;;;;;;;;;;;10.80;54.30;;;;;;5083020;28;20104;-69
2022/01/29 13:01:56;;;;;;;;;;;10.80;54.30;;;;;;5082995;28;19983;-70
2022/01/29 13:04:22;;;;;;;;;;;10.80;54.30;;;;;;5082950;28;19919;-70
2022/01/29 13:06:58;;;;;;;;;;;10.80;54.30;;;;;;5082915;28;19912;-70
2022/01/29 13:09:24;;;;;;;;;;;10.80;54.20;;;;;;5082950;28;19916;-70
2022/01/29 13:11:57;;;;;;;;;;;10.80;54.20;;;;;;5082902;28;19943;-70
2022/01/29 13:14:23;;;;;;;;;;;10.80;54.30;;;;;;5082752;28;19923;-69
2022/01/29 13:16:53;;;;;;;;;;;10.80;54.20;;;;;;5082541;28;19916;-70
2022/01/29 13:19:24;;;;;;;;;;;10.80;54.20;;;;;;5082640;28;19912;-70
2022/01/29 13:21:50;;;;;;;;;;;10.80;54.20;;;;;;5082672;28;20214;-70
2022/01/29 13:24:28;;;;;;;;;;;10.80;54.40;;;;;;5082571;28;19944;-70
2022/01/29 13:27:09;;;;;;;;;;;10.80;54.40;;;;;;5081210;28;19912;-69
2022/01/29 13:29:41;;;;;;;;;;;10.80;54.30;;;;;;5082501;28;19912;-70
2022/01/29 13:32:08;;;;;;;;;;;10.80;54.30;;;;;;5082458;28;19904;-71
2022/01/29 13:34:38;;;;;;;;;;;10.70;54.40;;;;;;5082339;28;19924;-70
2022/01/29 13:37:24;;;;;;;;;;;10.80;54.40;;;;;;5081080;28;19979;-70
2022/01/29 13:39:49;;;;;;;;;;;10.80;54.30;;;;;;5082356;28;19904;-70
2022/01/29 13:42:17;;;;;;;;;;;10.80;54.30;;;;;;5081906;28;20152;-70
2022/01/29 13:45:02;;;;;;;;;;;10.90;54.20;;;;;;5082267;28;19981;-70
2022/01/29 13:47:27;;;;;;;;;;;10.80;54.10;;;;;;5082215;28;19913;-70
2022/01/29 13:49:53;;;;;;;;;;;10.80;54.20;;;;;;5081987;28;19919;-69
2022/01/29 13:52:22;;;;;;;;;;;10.80;54.20;;;;;;5082184;28;20211;-70
2022/01/29 13:54:51;;;;;;;;;;;10.80;54.20;;;;;;5081983;28;19916;-70
2022/01/29 13:57:16;;;;;;;;;;;10.80;54.20;;;;;;5081544;28;19984;-69
2022/01/29 13:59:42;;;;;;;;;;;10.80;54.40;;;;;;5082020;28;19912;-70
2022/01/29 14:02:08;;;;;;;;;;;10.80;54.50;;;;;;5081887;28;20112;-70
2022/01/29 14:04:37;;;;;;;;;;;10.80;54.30;;;;;;5081876;28;19967;-69
2022/01/29 14:07:05;;;;;;;;;;;10.80;54.30;;;;;;5081773;28;20238;-69
2022/01/29 14:09:58;;;;;;;;;;;10.80;54.30;;;;;;5081819;28;20163;-70
2022/01/29 14:12:27;;;;;;;;;;;10.80;54.30;;;;;;5081561;28;20391;-70
2022/01/29 14:14:59;;;;;;;;;;;10.80;54.20;;;;;;5081656;28;19939;-70
2022/01/29 14:17:27;;;;;;;;;;;10.90;54.30;;;;;;5081339;28;19924;-70
2022/01/29 14:19:54;;;;;;;;;;;10.80;54.20;;;;;;5081553;28;19923;-70
2022/01/29 14:22:20;;;;;;;;;;;10.90;54.20;;;;;;5081529;28;19904;-70
2022/01/29 14:24:46;;;;;;;;;;;10.80;54.30;;;;;;5081457;28;19912;-69
2022/01/29 14:27:12;;;;;;;;;;;10.80;54.30;;;;;;5081492;28;20242;-69